sensor_id;sensor_type;location;lat;lon;timestamp;P1;durP1;ratioP1;P2;durP2;ratioP2
26774;SDS011;14362;51.902;7.626;2023-08-21T00:03:39;4.70;;;1.90;;
26774;SDS011;14362;51.902;7.626;2023-08-21T00:07:42;4.07;;;1.70;;
26774;SDS011;14362;51.902;7.626;2023-08-21T00:11:45;5.55;;;2.20;;
26774;SDS011;14362;51.902;7.626;2023-08-21T00:15:46;3.42;;;1.80;;
26774;SDS011;14362;51.902;7.626;2023-08-21T00:19:47;3.53;;;1.60;;
26774;SDS011;14362;51.902;7.626;2023-08-21T00:23:50;5.28;;;2.00;;
26774;SDS011;14362;51.902;7.626;2023-08-21T00:27:52;4.18;;;1.95;;
26774;SDS011;14362;51.902;7.626;2023-08-21T00:31:53;3.85;;;1.80;;
26774;SDS011;14362;51.902;7.626;2023-08-21T00:35:55;5.05;;;1.80;;
26774;SDS011;14362;51.902;7.626;2023-08-21T00:39:57;4.72;;;1.83;;
26774;SDS011;14362;51.902;7.626;2023-08-21T00:43:59;4.60;;;1.90;;
26774;SDS011;14362;51.902;7.626;2023-08-21T00:48:00;3.90;;;1.92;;
26774;SDS011;14362;51.902;7.626;2023-08-21T00:52:02;5.45;;;1.70;;
26774;SDS011;14362;51.902;7.626;2023-08-21T00:56:07;6.50;;;2.15;;
26774;SDS011;14362;51.902;7.626;2023-08-21T01:04:11;3.00;;;1.60;;
26774;SDS011;14362;51.902;7.626;2023-08-21T01:08:14;7.13;;;2.45;;
26774;SDS011;14362;51.902;7.626;2023-08-21T01:12:23;7.97;;;2.17;;
26774;SDS011;14362;51.902;7.626;2023-08-21T01:16:30;3.92;;;2.08;;
26774;SDS011;14362;51.902;7.626;2023-08-21T01:20:33;3.58;;;1.90;;
26774;SDS011;14362;51.902;7.626;2023-08-21T01:24:36;6.15;;;2.00;;
26774;SDS011;14362;51.902;7.626;2023-08-21T01:28:38;3.38;;;1.63;;
26774;SDS011;14362;51.902;7.626;2023-08-21T01:32:40;9.10;;;2.22;;
26774;SDS011;14362;51.902;7.626;2023-08-21T01:36:47;2.65;;;1.90;;
26774;SDS011;14362;51.902;7.626;2023-08-21T01:40:50;5.00;;;1.90;;
26774;SDS011;14362;51.902;7.626;2023-08-21T01:44:52;5.15;;;2.00;;
26774;SDS011;14362;51.902;7.626;2023-08-21T01:48:53;3.67;;;1.63;;
26774;SDS011;14362;51.902;7.626;2023-08-21T01:52:55;3.15;;;2.03;;
26774;SDS011;14362;51.902;7.626;2023-08-21T01:56:57;3.40;;;1.83;;
26774;SDS011;14362;51.902;7.626;2023-08-21T02:00:59;4.60;;;2.20;;
26774;SDS011;14362;51.902;7.626;2023-08-21T02:05:00;4.20;;;1.70;;
26774;SDS011;14362;51.902;7.626;2023-08-21T02:09:03;4.47;;;1.95;;
26774;SDS011;14362;51.902;7.626;2023-08-21T02:13:06;2.55;;;1.83;;
26774;SDS011;14362;51.902;7.626;2023-08-21T02:17:07;3.90;;;1.60;;
26774;SDS011;14362;51.902;7.626;2023-08-21T02:21:09;4.32;;;2.17;;
26774;SDS011;14362;51.902;7.626;2023-08-21T02:25:10;3.30;;;1.73;;
26774;SDS011;14362;51.902;7.626;2023-08-21T02:29:13;4.35;;;1.85;;
26774;SDS011;14362;51.902;7.626;2023-08-21T02:33:14;3.30;;;1.88;;
26774;SDS011;14362;51.902;7.626;2023-08-21T02:37:16;3.70;;;2.00;;
26774;SDS011;14362;51.902;7.626;2023-08-21T02:41:17;3.72;;;2.08;;
26774;SDS011;14362;51.902;7.626;2023-08-21T02:45:20;4.43;;;1.90;;
26774;SDS011;14362;51.902;7.626;2023-08-21T02:49:22;4.38;;;1.90;;
26774;SDS011;14362;51.902;7.626;2023-08-21T02:53:23;3.53;;;1.85;;
26774;SDS011;14362;51.902;7.626;2023-08-21T02:57:25;7.05;;;2.10;;
26774;SDS011;14362;51.902;7.626;2023-08-21T03:01:28;4.63;;;2.20;;
26774;SDS011;14362;51.902;7.626;2023-08-21T03:05:30;6.00;;;2.10;;
26774;SDS011;14362;51.902;7.626;2023-08-21T03:09:31;4.43;;;2.13;;
26774;SDS011;14362;51.902;7.626;2023-08-21T03:13:32;4.97;;;2.05;;
26774;SDS011;14362;51.902;7.626;2023-08-21T03:17:35;4.38;;;1.98;;
26774;SDS011;14362;51.902;7.626;2023-08-21T03:21:37;6.63;;;2.65;;
26774;SDS011;14362;51.902;7.626;2023-08-21T03:25:39;2.58;;;1.75;;
26774;SDS011;14362;51.902;7.626;2023-08-21T03:29:40;4.55;;;2.33;;
26774;SDS011;14362;51.902;7.626;2023-08-21T03:33:49;3.60;;;1.90;;
26774;SDS011;14362;51.902;7.626;2023-08-21T03:37:51;5.75;;;2.15;;
26774;SDS011;14362;51.902;7.626;2023-08-21T03:41:52;8.05;;;2.13;;
26774;SDS011;14362;51.902;7.626;2023-08-21T03:45:53;3.75;;;1.70;;
26774;SDS011;14362;51.902;7.626;2023-08-21T03:49:56;3.63;;;2.05;;
26774;SDS011;14362;51.902;7.626;2023-08-21T03:53:58;5.57;;;2.10;;
26774;SDS011;14362;51.902;7.626;2023-08-21T03:58:00;4.25;;;2.17;;
26774;SDS011;14362;51.902;7.626;2023-08-21T04:02:02;2.95;;;2.05;;
26774;SDS011;14362;51.902;7.626;2023-08-21T04:06:04;4.95;;;1.80;;
26774;SDS011;14362;51.902;7.626;2023-08-21T04:10:06;5.63;;;1.98;;
26774;SDS011;14362;51.902;7.626;2023-08-21T04:14:08;2.10;;;1.80;;
26774;SDS011;14362;51.902;7.626;2023-08-21T04:18:09;2.67;;;1.80;;
26774;SDS011;14362;51.902;7.626;2023-08-21T04:22:12;4.68;;;1.70;;
26774;SDS011;14362;51.902;7.626;2023-08-21T04:26:14;4.95;;;2.10;;
26774;SDS011;14362;51.902;7.626;2023-08-21T04:30:16;3.35;;;1.73;;
26774;SDS011;14362;51.902;7.626;2023-08-21T04:34:17;6.22;;;2.13;;
26774;SDS011;14362;51.902;7.626;2023-08-21T04:38:20;5.40;;;2.08;;
26774;SDS011;14362;51.902;7.626;2023-08-21T04:42:21;2.88;;;1.67;;
26774;SDS011;14362;51.902;7.626;2023-08-21T04:46:23;6.38;;;2.30;;
26774;SDS011;14362;51.902;7.626;2023-08-21T04:50:25;5.32;;;2.05;;
26774;SDS011;14362;51.902;7.626;2023-08-21T04:54:28;6.57;;;2.47;;
26774;SDS011;14362;51.902;7.626;2023-08-21T04:58:29;4.28;;;2.45;;
26774;SDS011;14362;51.902;7.626;2023-08-21T05:02:31;6.30;;;2.30;;
26774;SDS011;14362;51.902;7.626;2023-08-21T05:06:32;6.53;;;2.60;;
26774;SDS011;14362;51.902;7.626;2023-08-21T05:10:35;6.65;;;2.17;;
26774;SDS011;14362;51.902;7.626;2023-08-21T05:14:37;5.25;;;2.30;;
26774;SDS011;14362;51.902;7.626;2023-08-21T05:18:38;4.68;;;2.22;;
26774;SDS011;14362;51.902;7.626;2023-08-21T05:22:39;4.38;;;2.30;;
26774;SDS011;14362;51.902;7.626;2023-08-21T05:26:42;3.50;;;2.28;;
26774;SDS011;14362;51.902;7.626;2023-08-21T05:30:46;3.83;;;2.20;;
26774;SDS011;14362;51.902;7.626;2023-08-21T05:34:48;4.23;;;2.50;;
26774;SDS011;14362;51.902;7.626;2023-08-21T05:38:50;5.22;;;2.10;;
26774;SDS011;14362;51.902;7.626;2023-08-21T05:42:52;5.45;;;2.28;;
26774;SDS011;14362;51.902;7.626;2023-08-21T05:46:54;6.32;;;2.28;;
26774;SDS011;14362;51.902;7.626;2023-08-21T05:50:55;4.45;;;1.98;;
26774;SDS011;14362;51.902;7.626;2023-08-21T05:54:57;7.30;;;2.35;;
26774;SDS011;14362;51.902;7.626;2023-08-21T05:59:00;4.57;;;2.03;;
26774;SDS011;14362;51.902;7.626;2023-08-21T06:03:01;7.55;;;2.47;;
26774;SDS011;14362;51.902;7.626;2023-08-21T06:07:03;5.43;;;2.28;;
26774;SDS011;14362;51.902;7.626;2023-08-21T06:11:05;5.90;;;2.58;;
26774;SDS011;14362;51.902;7.626;2023-08-21T06:15:08;6.18;;;2.85;;
26774;SDS011;14362;51.902;7.626;2023-08-21T06:19:10;7.78;;;2.95;;
26774;SDS011;14362;51.902;7.626;2023-08-21T06:23:12;8.77;;;3.00;;
26774;SDS011;14362;51.902;7.626;2023-08-21T06:27:13;10.73;;;3.10;;
26774;SDS011;14362;51.902;7.626;2023-08-21T06:31:16;6.05;;;2.90;;
26774;SDS011;14362;51.902;7.626;2023-08-21T06:35:17;6.25;;;2.60;;
26774;SDS011;14362;51.902;7.626;2023-08-21T06:39:19;8.45;;;2.85;;
26774;SDS011;14362;51.902;7.626;2023-08-21T06:43:20;7.80;;;3.20;;
26774;SDS011;14362;51.902;7.626;2023-08-21T06:47:24;9.48;;;3.05;;
26774;SDS011;14362;51.902;7.626;2023-08-21T06:51:25;7.53;;;2.63;;
26774;SDS011;14362;51.902;7.626;2023-08-21T06:55:27;4.60;;;1.88;;
26774;SDS011;14362;51.902;7.626;2023-08-21T06:59:28;6.47;;;2.20;;
26774;SDS011;14362;51.902;7.626;2023-08-21T07:03:31;7.57;;;1.95;;
26774;SDS011;14362;51.902;7.626;2023-08-21T07:07:32;5.85;;;1.85;;
26774;SDS011;14362;51.902;7.626;2023-08-21T07:11:34;4.63;;;1.80;;
26774;SDS011;14362;51.902;7.626;2023-08-21T07:15:35;2.92;;;1.88;;
26774;SDS011;14362;51.902;7.626;2023-08-21T07:19:38;5.72;;;2.28;;
26774;SDS011;14362;51.902;7.626;2023-08-21T07:23:39;6.47;;;1.98;;
26774;SDS011;14362;51.902;7.626;2023-08-21T07:27:41;8.27;;;1.63;;
26774;SDS011;14362;51.902;7.626;2023-08-21T07:31:42;2.85;;;1.40;;
26774;SDS011;14362;51.902;7.626;2023-08-21T07:35:45;2.92;;;1.35;;
26774;SDS011;14362;51.902;7.626;2023-08-21T07:39:46;4.32;;;1.60;;
26774;SDS011;14362;51.902;7.626;2023-08-21T07:43:48;3.45;;;1.40;;
26774;SDS011;14362;51.902;7.626;2023-08-21T07:47:49;7.80;;;1.90;;
26774;SDS011;14362;51.902;7.626;2023-08-21T07:51:52;3.80;;;1.40;;
26774;SDS011;14362;51.902;7.626;2023-08-21T07:55:54;3.47;;;1.45;;
26774;SDS011;14362;51.902;7.626;2023-08-21T07:59:56;5.30;;;1.30;;
26774;SDS011;14362;51.902;7.626;2023-08-21T08:03:57;6.10;;;1.63;;
26774;SDS011;14362;51.902;7.626;2023-08-21T08:08:00;5.15;;;1.30;;
26774;SDS011;14362;51.902;7.626;2023-08-21T08:12:02;3.35;;;1.42;;
26774;SDS011;14362;51.902;7.626;2023-08-21T08:16:04;3.92;;;1.75;;
26774;SDS011;14362;51.902;7.626;2023-08-21T08:20:06;5.65;;;2.08;;
26774;SDS011;14362;51.902;7.626;2023-08-21T08:24:09;3.40;;;1.45;;
26774;SDS011;14362;51.902;7.626;2023-08-21T08:28:10;6.88;;;1.95;;
26774;SDS011;14362;51.902;7.626;2023-08-21T08:32:12;4.65;;;1.52;;
26774;SDS011;14362;51.902;7.626;2023-08-21T08:36:13;5.95;;;1.58;;
26774;SDS011;14362;51.902;7.626;2023-08-21T08:40:16;3.30;;;1.50;;
26774;SDS011;14362;51.902;7.626;2023-08-21T08:44:18;4.57;;;1.40;;
26774;SDS011;14362;51.902;7.626;2023-08-21T08:48:20;9.95;;;2.08;;
26774;SDS011;14362;51.902;7.626;2023-08-21T08:52:22;4.65;;;1.63;;
26774;SDS011;14362;51.902;7.626;2023-08-21T08:56:28;3.58;;;1.60;;
26774;SDS011;14362;51.902;7.626;2023-08-21T09:00:30;8.65;;;1.77;;
26774;SDS011;14362;51.902;7.626;2023-08-21T09:04:32;7.90;;;1.67;;
26774;SDS011;14362;51.902;7.626;2023-08-21T09:08:33;2.75;;;1.48;;
26774;SDS011;14362;51.902;7.626;2023-08-21T09:12:36;3.53;;;1.40;;
26774;SDS011;14362;51.902;7.626;2023-08-21T09:16:56;4.00;;;1.42;;
26774;SDS011;14362;51.902;7.626;2023-08-21T09:21:01;5.10;;;1.73;;
26774;SDS011;14362;51.902;7.626;2023-08-21T09:25:03;6.28;;;2.20;;
26774;SDS011;14362;51.902;7.626;2023-08-21T09:29:11;6.45;;;1.85;;
26774;SDS011;14362;51.902;7.626;2023-08-21T09:33:13;9.45;;;2.10;;
26774;SDS011;14362;51.902;7.626;2023-08-21T09:37:17;11.40;;;2.42;;
26774;SDS011;14362;51.902;7.626;2023-08-21T09:41:19;6.53;;;1.50;;
26774;SDS011;14362;51.902;7.626;2023-08-21T09:45:23;5.18;;;1.38;;
26774;SDS011;14362;51.902;7.626;2023-08-21T09:49:24;4.70;;;1.63;;
26774;SDS011;14362;51.902;7.626;2023-08-21T09:53:26;3.72;;;1.40;;
26774;SDS011;14362;51.902;7.626;2023-08-21T09:57:28;5.43;;;1.50;;
26774;SDS011;14362;51.902;7.626;2023-08-21T10:01:31;5.55;;;1.70;;
26774;SDS011;14362;51.902;7.626;2023-08-21T10:05:37;4.88;;;1.70;;
26774;SDS011;14362;51.902;7.626;2023-08-21T10:09:41;5.00;;;1.70;;
26774;SDS011;14362;51.902;7.626;2023-08-21T10:13:44;6.45;;;1.75;;
26774;SDS011;14362;51.902;7.626;2023-08-21T10:17:46;4.05;;;1.52;;
26774;SDS011;14362;51.902;7.626;2023-08-21T10:21:48;3.50;;;1.10;;
26774;SDS011;14362;51.902;7.626;2023-08-21T10:25:53;4.80;;;1.20;;
26774;SDS011;14362;51.902;7.626;2023-08-21T10:29:58;3.05;;;1.30;;
26774;SDS011;14362;51.902;7.626;2023-08-21T10:34:02;3.95;;;1.27;;
26774;SDS011;14362;51.902;7.626;2023-08-21T10:38:10;6.45;;;2.05;;
26774;SDS011;14362;51.902;7.626;2023-08-21T10:42:14;4.60;;;1.33;;
26774;SDS011;14362;51.902;7.626;2023-08-21T10:46:15;5.70;;;1.65;;
26774;SDS011;14362;51.902;7.626;2023-08-21T10:50:18;6.05;;;1.73;;
26774;SDS011;14362;51.902;7.626;2023-08-21T10:54:20;5.88;;;1.45;;
26774;SDS011;14362;51.902;7.626;2023-08-21T10:58:21;4.03;;;1.50;;
26774;SDS011;14362;51.902;7.626;2023-08-21T11:02:23;6.47;;;1.90;;
26774;SDS011;14362;51.902;7.626;2023-08-21T11:06:27;4.85;;;1.52;;
26774;SDS011;14362;51.902;7.626;2023-08-21T11:10:30;7.65;;;1.73;;
26774;SDS011;14362;51.902;7.626;2023-08-21T11:14:32;8.25;;;1.83;;
26774;SDS011;14362;51.902;7.626;2023-08-21T11:18:36;3.55;;;1.20;;
26774;SDS011;14362;51.902;7.626;2023-08-21T11:22:40;5.72;;;1.55;;
26774;SDS011;14362;51.902;7.626;2023-08-21T11:26:41;2.72;;;0.93;;
26774;SDS011;14362;51.902;7.626;2023-08-21T11:30:43;3.35;;;1.30;;
26774;SDS011;14362;51.902;7.626;2023-08-21T11:34:47;3.55;;;1.38;;
26774;SDS011;14362;51.902;7.626;2023-08-21T11:38:58;4.95;;;1.75;;
26774;SDS011;14362;51.902;7.626;2023-08-21T11:43:01;3.55;;;1.10;;
26774;SDS011;14362;51.902;7.626;2023-08-21T11:47:03;2.78;;;1.60;;
26774;SDS011;14362;51.902;7.626;2023-08-21T11:51:06;3.75;;;1.40;;
26774;SDS011;14362;51.902;7.626;2023-08-21T11:55:09;4.33;;;1.17;;
26774;SDS011;14362;51.902;7.626;2023-08-21T11:59:20;3.15;;;1.33;;
26774;SDS011;14362;51.902;7.626;2023-08-21T12:03:22;4.07;;;1.63;;
26774;SDS011;14362;51.902;7.626;2023-08-21T12:07:24;4.88;;;1.65;;
26774;SDS011;14362;51.902;7.626;2023-08-21T12:11:27;3.15;;;1.30;;
26774;SDS011;14362;51.902;7.626;2023-08-21T12:15:28;5.68;;;1.88;;
26774;SDS011;14362;51.902;7.626;2023-08-21T12:19:29;6.88;;;2.33;;
26774;SDS011;14362;51.902;7.626;2023-08-21T12:23:31;2.60;;;1.15;;
26774;SDS011;14362;51.902;7.626;2023-08-21T12:27:34;4.43;;;1.52;;
26774;SDS011;14362;51.902;7.626;2023-08-21T12:31:35;4.00;;;1.60;;
26774;SDS011;14362;51.902;7.626;2023-08-21T12:35:37;4.28;;;1.25;;
26774;SDS011;14362;51.902;7.626;2023-08-21T12:39:38;4.78;;;1.52;;
26774;SDS011;14362;51.902;7.626;2023-08-21T12:43:41;3.78;;;1.17;;
26774;SDS011;14362;51.902;7.626;2023-08-21T12:47:43;3.70;;;1.40;;
26774;SDS011;14362;51.902;7.626;2023-08-21T12:51:45;5.30;;;1.70;;
26774;SDS011;14362;51.902;7.626;2023-08-21T12:55:46;4.82;;;1.48;;
26774;SDS011;14362;51.902;7.626;2023-08-21T12:59:49;5.25;;;1.60;;
26774;SDS011;14362;51.902;7.626;2023-08-21T13:03:50;3.33;;;1.33;;
26774;SDS011;14362;51.902;7.626;2023-08-21T13:07:52;6.13;;;2.10;;
26774;SDS011;14362;51.902;7.626;2023-08-21T13:11:53;2.70;;;1.13;;
26774;SDS011;14362;51.902;7.626;2023-08-21T13:15:56;6.28;;;1.60;;
26774;SDS011;14362;51.902;7.626;2023-08-21T13:20:00;4.65;;;1.60;;
26774;SDS011;14362;51.902;7.626;2023-08-21T13:24:01;3.78;;;1.23;;
26774;SDS011;14362;51.902;7.626;2023-08-21T13:28:03;4.15;;;1.20;;
26774;SDS011;14362;51.902;7.626;2023-08-21T13:32:06;2.97;;;1.40;;
26774;SDS011;14362;51.902;7.626;2023-08-21T13:36:07;3.58;;;1.30;;
26774;SDS011;14362;51.902;7.626;2023-08-21T13:40:09;4.53;;;1.75;;
26774;SDS011;14362;51.902;7.626;2023-08-21T13:44:11;4.50;;;1.38;;
26774;SDS011;14362;51.902;7.626;2023-08-21T13:48:13;2.97;;;1.23;;
26774;SDS011;14362;51.902;7.626;2023-08-21T13:52:15;4.35;;;1.50;;
26774;SDS011;14362;51.902;7.626;2023-08-21T13:56:16;5.57;;;1.77;;
26774;SDS011;14362;51.902;7.626;2023-08-21T14:00:18;3.70;;;1.65;;
26774;SDS011;14362;51.902;7.626;2023-08-21T14:04:21;3.90;;;1.40;;
26774;SDS011;14362;51.902;7.626;2023-08-21T14:08:22;3.85;;;1.92;;
26774;SDS011;14362;51.902;7.626;2023-08-21T14:12:24;3.63;;;1.40;;
26774;SDS011;14362;51.902;7.626;2023-08-21T14:16:25;2.47;;;1.40;;
26774;SDS011;14362;51.902;7.626;2023-08-21T14:20:28;5.28;;;1.88;;
26774;SDS011;14362;51.902;7.626;2023-08-21T14:24:30;4.97;;;1.63;;
26774;SDS011;14362;51.902;7.626;2023-08-21T14:28:31;3.92;;;1.27;;
26774;SDS011;14362;51.902;7.626;2023-08-21T14:32:33;4.28;;;1.38;;
26774;SDS011;14362;51.902;7.626;2023-08-21T14:36:36;5.00;;;1.20;;
26774;SDS011;14362;51.902;7.626;2023-08-21T14:40:37;3.88;;;1.40;;
26774;SDS011;14362;51.902;7.626;2023-08-21T14:44:39;2.65;;;1.10;;
26774;SDS011;14362;51.902;7.626;2023-08-21T14:48:40;3.67;;;1.20;;
26774;SDS011;14362;51.902;7.626;2023-08-21T14:52:43;5.30;;;1.42;;
26774;SDS011;14362;51.902;7.626;2023-08-21T14:56:44;3.22;;;1.30;;
26774;SDS011;14362;51.902;7.626;2023-08-21T15:00:46;3.53;;;1.73;;
26774;SDS011;14362;51.902;7.626;2023-08-21T15:04:48;3.45;;;1.55;;
26774;SDS011;14362;51.902;7.626;2023-08-21T15:08:50;5.65;;;1.55;;
26774;SDS011;14362;51.902;7.626;2023-08-21T15:12:52;3.97;;;1.30;;
26774;SDS011;14362;51.902;7.626;2023-08-21T15:16:53;2.50;;;1.08;;
26774;SDS011;14362;51.902;7.626;2023-08-21T15:20:55;3.83;;;1.13;;
26774;SDS011;14362;51.902;7.626;2023-08-21T15:24:58;2.65;;;1.10;;
26774;SDS011;14362;51.902;7.626;2023-08-21T15:28:59;3.42;;;1.38;;
26774;SDS011;14362;51.902;7.626;2023-08-21T15:33:01;5.97;;;1.27;;
26774;SDS011;14362;51.902;7.626;2023-08-21T15:37:03;4.43;;;1.50;;
26774;SDS011;14362;51.902;7.626;2023-08-21T15:41:06;2.95;;;0.93;;
26774;SDS011;14362;51.902;7.626;2023-08-21T15:45:08;3.38;;;1.40;;
26774;SDS011;14362;51.902;7.626;2023-08-21T15:49:10;3.75;;;1.17;;
26774;SDS011;14362;51.902;7.626;2023-08-21T15:53:12;5.50;;;1.10;;
26774;SDS011;14362;51.902;7.626;2023-08-21T15:57:15;5.10;;;1.58;;
26774;SDS011;14362;51.902;7.626;2023-08-21T16:05:19;5.90;;;1.67;;
26774;SDS011;14362;51.902;7.626;2023-08-21T16:09:22;6.60;;;1.20;;
26774;SDS011;14362;51.902;7.626;2023-08-21T16:13:25;2.80;;;1.02;;
26774;SDS011;14362;51.902;7.626;2023-08-21T16:17:26;3.17;;;1.30;;
26774;SDS011;14362;51.902;7.626;2023-08-21T16:21:28;5.93;;;1.60;;
26774;SDS011;14362;51.902;7.626;2023-08-21T16:25:29;2.78;;;1.50;;
26774;SDS011;14362;51.902;7.626;2023-08-21T16:29:32;8.18;;;1.52;;
26774;SDS011;14362;51.902;7.626;2023-08-21T16:33:33;2.17;;;1.10;;
26774;SDS011;14362;51.902;7.626;2023-08-21T16:37:35;3.20;;;1.48;;
26774;SDS011;14362;51.902;7.626;2023-08-21T16:41:37;3.95;;;1.77;;
26774;SDS011;14362;51.902;7.626;2023-08-21T16:45:40;5.18;;;1.40;;
26774;SDS011;14362;51.902;7.626;2023-08-21T16:49:42;4.30;;;1.83;;
26774;SDS011;14362;51.902;7.626;2023-08-21T16:53:43;2.80;;;1.60;;
26774;SDS011;14362;51.902;7.626;2023-08-21T16:57:45;2.83;;;1.40;;
26774;SDS011;14362;51.902;7.626;2023-08-21T17:01:48;3.17;;;1.65;;
26774;SDS011;14362;51.902;7.626;2023-08-21T17:05:49;3.78;;;1.38;;
26774;SDS011;14362;51.902;7.626;2023-08-21T17:09:50;3.67;;;1.80;;
26774;SDS011;14362;51.902;7.626;2023-08-21T17:13:52;4.13;;;1.38;;
26774;SDS011;14362;51.902;7.626;2023-08-21T17:17:55;4.47;;;1.52;;
26774;SDS011;14362;51.902;7.626;2023-08-21T17:21:57;4.80;;;2.20;;
26774;SDS011;14362;51.902;7.626;2023-08-21T17:25:59;3.80;;;1.65;;
26774;SDS011;14362;51.902;7.626;2023-08-21T17:30:00;4.05;;;1.50;;
26774;SDS011;14362;51.902;7.626;2023-08-21T17:34:03;3.08;;;1.67;;
26774;SDS011;14362;51.902;7.626;2023-08-21T17:38:05;3.42;;;1.40;;
26774;SDS011;14362;51.902;7.626;2023-08-21T17:42:06;3.25;;;1.60;;
26774;SDS011;14362;51.902;7.626;2023-08-21T17:46:08;1.92;;;1.50;;
26774;SDS011;14362;51.902;7.626;2023-08-21T17:50:11;2.75;;;1.38;;
26774;SDS011;14362;51.902;7.626;2023-08-21T17:54:13;3.25;;;1.63;;
26774;SDS011;14362;51.902;7.626;2023-08-21T17:58:15;5.35;;;2.03;;
26774;SDS011;14362;51.902;7.626;2023-08-21T18:02:16;4.15;;;1.77;;
26774;SDS011;14362;51.902;7.626;2023-08-21T18:06:19;3.47;;;1.70;;
26774;SDS011;14362;51.902;7.626;2023-08-21T18:10:21;2.23;;;1.40;;
26774;SDS011;14362;51.902;7.626;2023-08-21T18:14:23;5.78;;;1.52;;
26774;SDS011;14362;51.902;7.626;2023-08-21T18:18:24;2.60;;;1.40;;
26774;SDS011;14362;51.902;7.626;2023-08-21T18:22:28;3.22;;;1.73;;
26774;SDS011;14362;51.902;7.626;2023-08-21T18:26:29;4.15;;;1.92;;
26774;SDS011;14362;51.902;7.626;2023-08-21T18:30:33;4.22;;;2.20;;
26774;SDS011;14362;51.902;7.626;2023-08-21T18:34:36;2.88;;;1.50;;
26774;SDS011;14362;51.902;7.626;2023-08-21T18:38:39;2.90;;;1.60;;
26774;SDS011;14362;51.902;7.626;2023-08-21T18:42:40;3.35;;;2.03;;
26774;SDS011;14362;51.902;7.626;2023-08-21T18:46:42;3.47;;;1.95;;
26774;SDS011;14362;51.902;7.626;2023-08-21T18:50:44;4.45;;;1.95;;
26774;SDS011;14362;51.902;7.626;2023-08-21T18:54:47;3.50;;;1.83;;
26774;SDS011;14362;51.902;7.626;2023-08-21T18:58:48;3.78;;;2.17;;
26774;SDS011;14362;51.902;7.626;2023-08-21T19:02:50;5.32;;;2.50;;
26774;SDS011;14362;51.902;7.626;2023-08-21T19:06:51;5.50;;;2.10;;
26774;SDS011;14362;51.902;7.626;2023-08-21T19:10:57;4.27;;;2.37;;
26774;SDS011;14362;51.902;7.626;2023-08-21T19:14:59;1.88;;;1.63;;
26774;SDS011;14362;51.902;7.626;2023-08-21T19:19:01;4.55;;;2.28;;
26774;SDS011;14362;51.902;7.626;2023-08-21T19:23:02;4.32;;;2.00;;
26774;SDS011;14362;51.902;7.626;2023-08-21T19:27:05;6.28;;;2.13;;
26774;SDS011;14362;51.902;7.626;2023-08-21T19:31:07;5.50;;;2.45;;
26774;SDS011;14362;51.902;7.626;2023-08-21T19:35:09;6.13;;;2.70;;
26774;SDS011;14362;51.902;7.626;2023-08-21T19:39:11;5.20;;;2.05;;
26774;SDS011;14362;51.902;7.626;2023-08-21T19:43:13;4.82;;;2.33;;
26774;SDS011;14362;51.902;7.626;2023-08-21T19:47:15;4.78;;;2.60;;
26774;SDS011;14362;51.902;7.626;2023-08-21T19:51:17;4.22;;;2.33;;
26774;SDS011;14362;51.902;7.626;2023-08-21T19:55:18;4.47;;;2.50;;
26774;SDS011;14362;51.902;7.626;2023-08-21T19:59:21;3.75;;;2.50;;
26774;SDS011;14362;51.902;7.626;2023-08-21T20:03:23;7.65;;;2.90;;
26774;SDS011;14362;51.902;7.626;2023-08-21T20:07:24;6.18;;;3.00;;
26774;SDS011;14362;51.902;7.626;2023-08-21T20:11:26;5.88;;;2.80;;
26774;SDS011;14362;51.902;7.626;2023-08-21T20:15:29;4.13;;;3.10;;
26774;SDS011;14362;51.902;7.626;2023-08-21T20:19:30;9.73;;;3.72;;
26774;SDS011;14362;51.902;7.626;2023-08-21T20:23:32;5.13;;;3.53;;
26774;SDS011;14362;51.902;7.626;2023-08-21T20:27:34;10.73;;;4.03;;
26774;SDS011;14362;51.902;7.626;2023-08-21T20:31:38;7.07;;;3.90;;
26774;SDS011;14362;51.902;7.626;2023-08-21T20:35:39;6.15;;;3.47;;
26774;SDS011;14362;51.902;7.626;2023-08-21T20:39:41;4.78;;;3.55;;
26774;SDS011;14362;51.902;7.626;2023-08-21T20:43:42;6.05;;;3.60;;
26774;SDS011;14362;51.902;7.626;2023-08-21T20:47:45;5.68;;;3.30;;
26774;SDS011;14362;51.902;7.626;2023-08-21T20:51:47;4.25;;;3.83;;
26774;SDS011;14362;51.902;7.626;2023-08-21T20:55:48;6.38;;;4.45;;
26774;SDS011;14362;51.902;7.626;2023-08-21T20:59:50;6.35;;;3.90;;
26774;SDS011;14362;51.902;7.626;2023-08-21T21:03:53;4.50;;;3.97;;
26774;SDS011;14362;51.902;7.626;2023-08-21T21:07:54;6.60;;;3.80;;
26774;SDS011;14362;51.902;7.626;2023-08-21T21:11:55;6.80;;;3.80;;
26774;SDS011;14362;51.902;7.626;2023-08-21T21:15:58;6.60;;;3.58;;
26774;SDS011;14362;51.902;7.626;2023-08-21T21:20:01;4.85;;;3.45;;
26774;SDS011;14362;51.902;7.626;2023-08-21T21:24:03;3.92;;;3.15;;
26774;SDS011;14362;51.902;7.626;2023-08-21T21:28:05;4.30;;;2.65;;
26774;SDS011;14362;51.902;7.626;2023-08-21T21:32:06;8.05;;;3.22;;
26774;SDS011;14362;51.902;7.626;2023-08-21T21:36:10;6.53;;;3.05;;
26774;SDS011;14362;51.902;7.626;2023-08-21T21:40:11;5.65;;;2.78;;
26774;SDS011;14362;51.902;7.626;2023-08-21T21:44:13;6.32;;;3.13;;
26774;SDS011;14362;51.902;7.626;2023-08-21T21:48:14;3.13;;;2.60;;
26774;SDS011;14362;51.902;7.626;2023-08-21T21:52:17;2.88;;;2.45;;
26774;SDS011;14362;51.902;7.626;2023-08-21T21:56:19;4.75;;;3.10;;
26774;SDS011;14362;51.902;7.626;2023-08-21T22:00:20;5.60;;;2.78;;
26774;SDS011;14362;51.902;7.626;2023-08-21T22:04:22;4.18;;;2.42;;
26774;SDS011;14362;51.902;7.626;2023-08-21T22:08:26;5.18;;;2.55;;
26774;SDS011;14362;51.902;7.626;2023-08-21T22:12:28;5.63;;;2.72;;
26774;SDS011;14362;51.902;7.626;2023-08-21T22:16:29;5.30;;;2.60;;
26774;SDS011;14362;51.902;7.626;2023-08-21T22:20:31;3.63;;;2.55;;
26774;SDS011;14362;51.902;7.626;2023-08-21T22:24:34;3.58;;;2.25;;
26774;SDS011;14362;51.902;7.626;2023-08-21T22:28:36;5.38;;;2.65;;
26774;SDS011;14362;51.902;7.626;2023-08-21T22:32:37;7.38;;;2.53;;
26774;SDS011;14362;51.902;7.626;2023-08-21T22:36:39;6.03;;;2.80;;
26774;SDS011;14362;51.902;7.626;2023-08-21T22:40:42;5.50;;;2.70;;
26774;SDS011;14362;51.902;7.626;2023-08-21T22:44:44;6.72;;;2.55;;
26774;SDS011;14362;51.902;7.626;2023-08-21T22:48:45;5.30;;;2.70;;
26774;SDS011;14362;51.902;7.626;2023-08-21T22:52:46;4.55;;;2.55;;
26774;SDS011;14362;51.902;7.626;2023-08-21T22:56:49;3.20;;;2.90;;
26774;SDS011;14362;51.902;7.626;2023-08-21T23:00:51;9.20;;;4.28;;
26774;SDS011;14362;51.902;7.626;2023-08-21T23:04:52;5.07;;;3.00;;
26774;SDS011;14362;51.902;7.626;2023-08-21T23:08:54;5.65;;;3.40;;
26774;SDS011;14362;51.902;7.626;2023-08-21T23:12:56;5.38;;;3.03;;
26774;SDS011;14362;51.902;7.626;2023-08-21T23:16:58;5.95;;;2.88;;
26774;SDS011;14362;51.902;7.626;2023-08-21T23:21:00;4.65;;;2.78;;
26774;SDS011;14362;51.902;7.626;2023-08-21T23:25:03;8.87;;;3.17;;
26774;SDS011;14362;51.902;7.626;2023-08-21T23:29:09;5.15;;;3.35;;
26774;SDS011;14362;51.902;7.626;2023-08-21T23:33:11;5.15;;;2.80;;
26774;SDS011;14362;51.902;7.626;2023-08-21T23:37:12;5.10;;;3.10;;
26774;SDS011;14362;51.902;7.626;2023-08-21T23:41:14;9.27;;;3.38;;
26774;SDS011;14362;51.902;7.626;2023-08-21T23:45:17;5.38;;;3.40;;
26774;SDS011;14362;51.902;7.626;2023-08-21T23:49:19;5.13;;;2.88;;
26774;SDS011;14362;51.902;7.626;2023-08-21T23:53:20;4.53;;;3.10;;
26774;SDS011;14362;51.902;7.626;2023-08-21T23:57:22;5.00;;;2.97;;
